createdAt,value
2023-03-14T00:00:55.286Z,65.45
2023-03-14T00:01:56.192Z,65.96
2023-03-14T00:02:57.072Z,65.86
2023-03-14T00:03:57.958Z,66.67
2023-03-14T00:04:58.844Z,66.78
2023-03-14T00:05:59.727Z,67.11
2023-03-14T00:07:00.610Z,67.02
2023-03-14T00:08:01.492Z,67.63
2023-03-14T00:09:02.368Z,67.73
2023-03-14T00:10:03.276Z,67.83
2023-03-14T00:11:04.148Z,68.45
2023-03-14T00:12:05.053Z,68.55
2023-03-14T00:13:05.940Z,68.45
2023-03-14T00:14:06.807Z,68.55
2023-03-14T00:15:07.701Z,68.76
2023-03-14T00:16:08.662Z,69.10
2023-03-14T00:17:09.512Z,69.10
2023-03-14T00:18:10.387Z,69.40
2023-03-14T00:19:11.257Z,69.92
2023-03-14T00:20:12.170Z,70.26
2023-03-14T00:21:13.041Z,70.36
2023-03-14T00:22:13.916Z,70.97
2023-03-14T00:23:14.810Z,71.28
2023-03-14T00:24:15.684Z,71.28
2023-03-14T00:25:16.567Z,71.28
2023-03-14T00:26:17.455Z,71.62
2023-03-14T00:27:18.339Z,71.83
2023-03-14T00:28:19.217Z,72.03
2023-03-14T00:29:20.109Z,72.96
2023-03-14T00:30:20.991Z,72.85
2023-03-14T00:31:21.918Z,72.85
2023-03-14T00:32:22.798Z,72.85
2023-03-14T00:33:23.639Z,72.78
2023-03-14T00:34:24.519Z,73.10
2023-03-14T00:35:25.426Z,74.02
2023-03-14T00:36:26.296Z,74.02
2023-03-14T00:37:27.181Z,74.02
2023-03-14T00:38:28.073Z,74.53
2023-03-14T00:39:28.938Z,74.84
2023-03-14T00:40:29.830Z,75.45
2023-03-14T00:41:30.730Z,75.56
2023-03-14T00:42:31.589Z,75.45
2023-03-14T00:43:32.475Z,75.35
2023-03-14T00:44:33.356Z,75.56
2023-03-14T00:45:34.249Z,75.25
2023-03-14T00:46:35.153Z,75.29
2023-03-14T00:47:36.040Z,75.38
2023-03-14T00:48:36.907Z,76.10
2023-03-14T00:49:37.776Z,76.10
2023-03-14T00:50:38.673Z,76.21
2023-03-14T00:51:39.552Z,75.80
2023-03-14T00:52:40.435Z,75.70
2023-03-14T00:53:41.332Z,75.70
2023-03-14T00:54:42.203Z,75.80
2023-03-14T00:55:43.087Z,75.70
2023-03-14T00:56:43.968Z,75.38
2023-03-14T00:57:44.843Z,75.80
2023-03-14T00:58:45.726Z,75.90
2023-03-14T00:59:46.632Z,75.80
2023-03-14T01:00:47.507Z,75.70
2023-03-14T01:01:48.451Z,75.70
2023-03-14T01:02:49.372Z,76.31
2023-03-14T01:03:50.210Z,76.42
2023-03-14T01:04:51.094Z,76.51
2023-03-14T01:05:52.000Z,76.42
2023-03-14T01:06:52.874Z,76.31
2023-03-14T01:07:53.756Z,75.80
2023-03-14T01:08:54.633Z,75.49
2023-03-14T01:09:55.520Z,75.59
2023-03-14T01:10:56.399Z,75.80
2023-03-14T01:11:57.296Z,75.90
2023-03-14T01:12:58.166Z,76.42
2023-03-14T01:13:59.052Z,76.93
2023-03-14T01:14:59.936Z,76.72
2023-03-14T01:16:00.870Z,76.93
2023-03-14T01:17:01.826Z,76.82
2023-03-14T01:18:02.236Z,77.34
2023-03-14T01:19:03.096Z,77.65
2023-03-14T01:20:04.004Z,77.65
2023-03-14T01:21:04.861Z,78.47
2023-03-14T01:22:05.743Z,78.47
2023-03-14T01:23:06.632Z,78.27
2023-03-14T01:24:07.540Z,77.75
2023-03-14T01:25:08.398Z,77.75
2023-03-14T01:26:09.292Z,78.16
2023-03-14T01:27:10.166Z,77.23
2023-03-14T01:28:11.050Z,76.82
2023-03-14T01:29:11.940Z,76.62
2023-03-14T01:30:12.834Z,77.13
2023-03-14T01:31:13.726Z,77.23
2023-03-14T01:32:14.595Z,76.72
2023-03-14T01:33:15.508Z,77.03
2023-03-14T01:34:16.361Z,77.65
2023-03-14T01:35:17.235Z,78.27
2023-03-14T01:36:18.145Z,78.16
2023-03-14T01:37:19.013Z,78.57
2023-03-14T01:38:19.898Z,78.57
2023-03-14T01:39:20.773Z,78.67
2023-03-14T01:40:21.666Z,78.88
2023-03-14T01:41:22.546Z,79.19
2023-03-14T01:42:23.439Z,78.88
2023-03-14T01:43:24.308Z,78.88
2023-03-14T01:44:25.190Z,78.78
2023-03-14T01:45:26.099Z,78.88
2023-03-14T01:46:26.973Z,79.02
2023-03-14T01:47:27.874Z,79.02
2023-03-14T01:48:28.814Z,79.02
2023-03-14T01:49:29.631Z,79.02
2023-03-14T01:50:30.513Z,79.53
2023-03-14T01:51:31.422Z,80.35
2023-03-14T01:52:32.290Z,80.56
2023-03-14T01:53:33.165Z,80.46
2023-03-14T01:54:34.065Z,80.35
2023-03-14T01:55:34.543Z,80.25
2023-03-14T01:56:35.436Z,81.48
2023-03-14T01:57:36.322Z,80.97
2023-03-14T01:58:37.205Z,81.48
2023-03-14T01:59:38.079Z,81.79
2023-03-14T02:00:39.016Z,82.10
2023-03-14T02:01:39.856Z,82.51
2023-03-14T02:02:40.741Z,82.82
2023-03-14T02:03:41.679Z,83.23
2023-03-14T02:04:42.512Z,83.85
2023-03-14T02:05:43.392Z,84.30
2023-03-14T02:06:44.294Z,84.50
2023-03-14T02:07:45.171Z,84.71
2023-03-14T02:08:46.055Z,84.61
2023-03-14T02:09:46.941Z,84.81
2023-03-14T02:10:47.819Z,84.20
2023-03-14T02:11:48.715Z,84.40
2023-03-14T02:12:49.608Z,84.40
2023-03-14T02:13:50.480Z,84.91
2023-03-14T02:14:51.362Z,85.94
2023-03-14T02:15:52.249Z,85.43
2023-03-14T02:16:53.144Z,84.91
2023-03-14T02:17:54.165Z,85.12
2023-03-14T02:18:55.022Z,85.06
2023-03-14T02:19:55.882Z,85.57
2023-03-14T02:20:56.751Z,85.78
2023-03-14T02:21:57.650Z,86.19
2023-03-14T02:22:58.527Z,85.68
2023-03-14T02:23:59.410Z,84.75
2023-03-14T02:25:00.322Z,84.03
2023-03-14T02:26:01.174Z,84.27
2023-03-14T02:27:02.069Z,84.79
2023-03-14T02:28:02.943Z,83.97
2023-03-14T02:29:03.826Z,83.76
2023-03-14T02:30:04.721Z,84.48
2023-03-14T02:31:05.614Z,84.52
2023-03-14T02:32:06.550Z,84.21
2023-03-14T02:33:07.368Z,84.31
2023-03-14T02:34:08.342Z,84.31
2023-03-14T02:35:09.156Z,84.72
2023-03-14T02:36:10.102Z,84.72
2023-03-14T02:37:10.983Z,84.83
2023-03-14T02:38:11.851Z,84.83
2023-03-14T02:39:12.734Z,84.93
2023-03-14T02:40:13.638Z,86.47
2023-03-14T02:41:14.501Z,86.79
2023-03-14T02:42:15.394Z,86.47
2023-03-14T02:43:16.292Z,86.27
2023-03-14T02:44:17.165Z,85.96
2023-03-14T02:45:18.046Z,85.86
2023-03-14T02:46:18.966Z,86.27
2023-03-14T02:47:19.820Z,86.79
2023-03-14T02:48:20.709Z,86.88
2023-03-14T02:49:21.609Z,87.92
2023-03-14T02:50:22.483Z,88.95
2023-03-14T02:51:23.378Z,88.43
2023-03-14T02:52:24.247Z,88.23
2023-03-14T02:53:25.141Z,88.84
2023-03-14T02:54:26.012Z,89.15
2023-03-14T02:55:26.912Z,88.74
2023-03-14T02:56:27.787Z,89.05
2023-03-14T02:57:28.674Z,87.92
2023-03-14T02:58:29.561Z,88.84
2023-03-14T02:59:30.440Z,88.12
2023-03-14T03:00:31.325Z,87.81
2023-03-14T03:01:32.264Z,88.02
2023-03-14T03:02:33.122Z,88.43
2023-03-14T03:03:34.116Z,88.23
2023-03-14T03:04:34.999Z,88.53
2023-03-14T03:05:35.857Z,88.26
2023-03-14T03:06:36.746Z,87.34
2023-03-14T03:07:37.636Z,87.34
2023-03-14T03:08:38.512Z,87.44
2023-03-14T03:09:39.399Z,87.34
2023-03-14T03:10:40.324Z,87.54
2023-03-14T03:11:41.207Z,87.65
2023-03-14T03:12:42.091Z,88.26
2023-03-14T03:13:42.987Z,88.47
2023-03-14T03:14:43.865Z,88.57
2023-03-14T03:15:44.740Z,88.68
2023-03-14T03:16:45.701Z,88.82
2023-03-14T03:17:46.583Z,88.31
2023-03-14T03:18:47.476Z,88.72
2023-03-14T03:19:48.477Z,89.34
2023-03-14T03:20:49.292Z,89.44
2023-03-14T03:21:50.179Z,89.34
2023-03-14T03:22:51.081Z,89.54
2023-03-14T03:23:51.956Z,89.23
2023-03-14T03:24:52.838Z,89.17
2023-03-14T03:25:53.734Z,89.38
2023-03-14T03:26:54.622Z,89.79
2023-03-14T03:27:55.650Z,89.69
2023-03-14T03:28:55.998Z,89.38
2023-03-14T03:29:56.882Z,89.69
2023-03-14T03:30:57.818Z,89.58
2023-03-14T03:31:58.659Z,89.58
2023-03-14T03:32:59.627Z,89.58
2023-03-14T03:34:00.513Z,89.28
2023-03-14T03:35:01.380Z,89.07
2023-03-14T03:36:02.328Z,88.24
2023-03-14T03:37:03.163Z,87.93
2023-03-14T03:38:04.054Z,87.93
2023-03-14T03:39:04.968Z,88.04
2023-03-14T03:40:05.826Z,88.24
2023-03-14T03:41:06.712Z,89.17
2023-03-14T03:42:07.599Z,89.07
2023-03-14T03:43:08.475Z,89.17
2023-03-14T03:44:09.356Z,89.07
2023-03-14T03:45:10.250Z,88.86
2023-03-14T03:46:11.174Z,89.69
2023-03-14T03:47:12.056Z,89.38
2023-03-14T03:48:12.946Z,89.28
2023-03-14T03:49:13.821Z,89.07
2023-03-14T03:50:14.725Z,89.07
2023-03-14T03:51:15.591Z,88.86
2023-03-14T03:52:16.459Z,88.86
2023-03-14T03:53:26.912Z,88.86
2023-03-14T03:54:19.133Z,88.45
2023-03-14T03:55:19.006Z,88.65
2023-03-14T03:56:19.887Z,88.35
2023-03-14T03:57:20.779Z,88.65
2023-03-14T03:58:21.652Z,89.07
2023-03-14T03:59:22.537Z,89.79
2023-03-14T04:00:23.419Z,89.69
2023-03-14T04:01:24.316Z,89.17
2023-03-14T04:02:24.846Z,89.48
2023-03-14T04:03:25.544Z,88.76
2023-03-14T04:04:26.002Z,88.65
2023-03-14T04:05:26.675Z,88.86
2023-03-14T04:06:27.543Z,89.38
2023-03-14T04:07:28.411Z,90.20
2023-03-14T04:08:29.320Z,89.79
2023-03-14T04:09:30.196Z,89.58
2023-03-14T04:10:31.072Z,89.79
2023-03-14T04:11:31.961Z,90.10
2023-03-14T04:12:32.846Z,89.79
2023-03-14T04:13:33.730Z,89.69
2023-03-14T04:14:34.630Z,89.48
2023-03-14T04:15:35.530Z,90.00
2023-03-14T04:16:36.381Z,90.61
2023-03-14T04:17:37.276Z,90.92
2023-03-14T04:18:38.157Z,91.13
2023-03-14T04:19:39.039Z,91.38
2023-03-14T04:20:39.950Z,90.86
2023-03-14T04:21:40.805Z,91.28
2023-03-14T04:22:43.519Z,91.28
2023-03-14T04:23:42.408Z,90.76
2023-03-14T04:24:43.288Z,90.76
2023-03-14T04:25:44.168Z,90.55
2023-03-14T04:26:45.081Z,90.14
2023-03-14T04:27:45.938Z,90.45
2023-03-14T04:28:46.828Z,90.66
2023-03-14T04:29:47.727Z,90.86
2023-03-14T04:30:48.593Z,90.66
2023-03-14T04:31:49.473Z,90.76
2023-03-14T04:32:50.416Z,91.38
2023-03-14T04:33:51.294Z,91.48
2023-03-14T04:34:52.177Z,90.86
2023-03-14T04:35:53.136Z,91.17
2023-03-14T04:36:54.049Z,90.66
2023-03-14T04:37:54.875Z,90.97
2023-03-14T04:38:55.779Z,90.66
2023-03-14T04:39:56.654Z,90.66
2023-03-14T04:40:57.537Z,90.45
2023-03-14T04:41:58.421Z,91.07
2023-03-14T04:42:59.293Z,90.35
2023-03-14T04:44:00.183Z,90.45
2023-03-14T04:45:01.072Z,90.45
2023-03-14T04:46:01.951Z,90.49
2023-03-14T04:47:02.864Z,90.59
2023-03-14T04:48:03.741Z,90.49
2023-03-14T04:49:04.637Z,90.08
2023-03-14T04:50:05.522Z,90.49
2023-03-14T04:51:06.438Z,90.39
2023-03-14T04:52:07.291Z,90.49
2023-03-14T04:53:08.170Z,90.39
2023-03-14T04:54:09.057Z,90.91
2023-03-14T04:55:09.938Z,90.91
2023-03-14T04:56:10.822Z,90.70
2023-03-14T04:57:11.719Z,91.11
2023-03-14T04:58:12.587Z,91.11
2023-03-14T04:59:13.484Z,91.22
2023-03-14T05:00:14.369Z,91.11
2023-03-14T05:01:15.251Z,91.22
2023-03-14T05:02:16.132Z,91.01
2023-03-14T05:03:17.102Z,90.95
2023-03-14T05:04:18.002Z,91.26
2023-03-14T05:05:18.882Z,91.26
2023-03-14T05:06:19.774Z,91.46
2023-03-14T05:07:20.636Z,91.67
2023-03-14T05:08:21.524Z,91.77
2023-03-14T05:09:22.425Z,91.46
2023-03-14T05:10:23.295Z,91.46
2023-03-14T05:11:24.180Z,91.67
2023-03-14T05:12:25.240Z,91.77
2023-03-14T05:13:25.568Z,91.56
2023-03-14T05:14:26.481Z,91.56
2023-03-14T05:15:27.355Z,91.67
2023-03-14T05:16:28.306Z,91.67
2023-03-14T05:17:29.201Z,91.36
2023-03-14T05:18:30.078Z,91.56
2023-03-14T05:19:30.968Z,91.56
2023-03-14T05:20:31.866Z,91.46
2023-03-14T05:21:32.763Z,91.05
2023-03-14T05:22:33.570Z,90.64
2023-03-14T05:23:34.450Z,89.86
2023-03-14T05:24:35.345Z,88.82
2023-03-14T05:25:36.214Z,88.61
2023-03-14T05:26:37.096Z,88.31
2023-03-14T05:27:37.944Z,88.41
2023-03-14T05:28:38.762Z,88.20
2023-03-14T05:29:39.602Z,87.99
2023-03-14T05:30:40.431Z,87.68
2023-03-14T05:31:41.324Z,87.79
2023-03-14T05:32:42.157Z,87.89
2023-03-14T05:33:43.028Z,88.20
2023-03-14T05:34:43.885Z,88.20
2023-03-14T05:35:44.765Z,88.31
2023-03-14T05:36:45.614Z,88.20
2023-03-14T05:37:46.427Z,88.10
2023-03-14T05:38:47.308Z,88.10
2023-03-14T05:39:48.211Z,88.20
2023-03-14T05:40:49.065Z,88.20
2023-03-14T05:41:49.881Z,88.20
2023-03-14T05:42:50.711Z,88.41
2023-03-14T05:43:51.583Z,88.51
2023-03-14T05:44:52.479Z,88.51
2023-03-14T05:45:53.394Z,88.82
2023-03-14T05:46:54.266Z,88.71
2023-03-14T05:47:55.087Z,88.92
2023-03-14T05:48:55.913Z,89.03
2023-03-14T05:49:56.761Z,88.96
2023-03-14T05:50:57.598Z,88.82
2023-03-14T05:51:58.469Z,88.82
2023-03-14T05:52:59.262Z,88.76
2023-03-14T05:54:00.089Z,88.76
2023-03-14T05:55:00.918Z,88.86
2023-03-14T05:56:01.747Z,88.86
2023-03-14T05:57:02.576Z,88.86
2023-03-14T05:58:03.407Z,88.96
2023-03-14T05:59:04.235Z,89.07
2023-03-14T06:00:05.074Z,88.96
2023-03-14T06:01:05.917Z,88.76
2023-03-14T06:02:06.790Z,88.45
2023-03-14T06:03:07.790Z,87.93
2023-03-14T06:04:08.211Z,87.73
2023-03-14T06:05:09.049Z,87.73
2023-03-14T06:06:09.871Z,87.83
2023-03-14T06:07:10.756Z,87.73
2023-03-14T06:08:11.544Z,87.83
2023-03-14T06:09:12.366Z,88.24
2023-03-14T06:10:13.231Z,88.34
2023-03-14T06:11:14.025Z,88.86
2023-03-14T06:12:14.851Z,89.17
2023-03-14T06:13:15.694Z,89.28
2023-03-14T06:14:16.516Z,89.48
2023-03-14T06:15:17.363Z,89.28
2023-03-14T06:16:18.198Z,89.59
2023-03-14T06:17:19.008Z,89.89
2023-03-14T06:18:19.831Z,89.89
2023-03-14T06:19:20.673Z,90.00
2023-03-14T06:20:21.499Z,89.79
2023-03-14T06:21:22.336Z,89.62
2023-03-14T06:22:23.183Z,88.96
2023-03-14T06:23:24.000Z,89.28
2023-03-14T06:24:24.826Z,89.48
2023-03-14T06:25:25.657Z,89.94
2023-03-14T06:26:26.499Z,89.62
2023-03-14T06:27:27.318Z,89.62
2023-03-14T06:28:28.148Z,89.73
2023-03-14T06:29:28.982Z,90.14
2023-03-14T06:30:29.877Z,90.14
2023-03-14T06:31:30.661Z,90.14
2023-03-14T06:32:31.525Z,90.45
2023-03-14T06:33:32.354Z,90.66
2023-03-14T06:34:33.199Z,90.77
2023-03-14T06:35:34.076Z,90.66
2023-03-14T06:36:34.870Z,91.07
2023-03-14T06:37:35.757Z,90.97
2023-03-14T06:38:36.583Z,91.07
2023-03-14T06:39:37.386Z,91.17
2023-03-14T06:40:38.216Z,91.28
2023-03-14T06:41:39.073Z,90.93
2023-03-14T06:42:39.880Z,91.34
2023-03-14T06:43:40.711Z,91.34
2023-03-14T06:44:41.537Z,91.28
2023-03-14T06:45:42.452Z,91.38
2023-03-14T06:46:43.241Z,92.27
2023-03-14T06:47:44.058Z,92.58
2023-03-14T06:48:44.889Z,92.48
2023-03-14T06:49:45.718Z,92.27
2023-03-14T06:50:46.557Z,92.07
2023-03-14T06:51:47.386Z,91.86
2023-03-14T06:52:48.322Z,92.07
2023-03-14T06:53:49.111Z,92.07
2023-03-14T06:54:49.940Z,92.17
2023-03-14T06:55:50.783Z,92.38
2023-03-14T06:56:51.612Z,91.96
2023-03-14T06:57:52.446Z,92.48
2023-03-14T06:58:53.272Z,92.38
2023-03-14T06:59:54.128Z,92.48
2023-03-14T07:00:54.941Z,92.17
2023-03-14T07:01:55.768Z,91.75
2023-03-14T07:02:56.606Z,91.75
2023-03-14T07:03:57.459Z,91.55
2023-03-14T07:04:58.240Z,90.77
2023-03-14T07:05:59.097Z,89.94
2023-03-14T07:06:59.914Z,89.32
2023-03-14T07:08:00.766Z,89.11
2023-03-14T07:09:03.033Z,89.32
2023-03-14T07:10:02.357Z,89.52
2023-03-14T07:11:03.195Z,89.83
2023-03-14T07:12:04.039Z,90.45
2023-03-14T07:13:04.866Z,90.56
2023-03-14T07:14:05.688Z,90.45
2023-03-14T07:15:17.657Z,90.25
2023-03-14T07:16:08.314Z,90.25
2023-03-14T07:17:08.165Z,90.25
2023-03-14T07:18:09.000Z,90.25
2023-03-14T07:19:09.830Z,89.73
2023-03-14T07:20:10.659Z,89.42
2023-03-14T07:21:11.509Z,89.42
2023-03-14T07:22:12.310Z,89.22
2023-03-14T07:23:13.206Z,89.01
2023-03-14T07:24:14.048Z,89.01
2023-03-14T07:25:14.809Z,89.32
2023-03-14T07:26:16.202Z,89.52
2023-03-14T07:27:16.529Z,89.42
2023-03-14T07:28:17.355Z,89.77
2023-03-14T07:29:18.183Z,89.67
2023-03-14T07:30:19.024Z,89.67
2023-03-14T07:31:19.905Z,89.77
2023-03-14T07:32:20.789Z,89.98
2023-03-14T07:33:21.566Z,90.29
2023-03-14T07:34:22.401Z,90.39
2023-03-14T07:35:23.234Z,90.50
2023-03-14T07:36:24.057Z,90.60
2023-03-14T07:37:24.873Z,90.91
2023-03-14T07:38:25.741Z,91.11
2023-03-14T07:39:26.523Z,91.01
2023-03-14T07:40:27.471Z,90.80
2023-03-14T07:41:28.281Z,90.70
2023-03-14T07:42:29.094Z,90.91
2023-03-14T07:43:29.924Z,91.01
2023-03-14T07:44:30.753Z,90.91
2023-03-14T07:45:31.575Z,91.42
2023-03-14T07:46:32.541Z,91.32
2023-03-14T07:47:33.342Z,91.11
2023-03-14T07:48:34.155Z,91.53
2023-03-14T07:49:34.996Z,91.74
2023-03-14T07:50:35.818Z,91.63
2023-03-14T07:51:36.657Z,92.05
2023-03-14T07:52:37.488Z,91.84
2023-03-14T07:53:38.338Z,91.63
2023-03-14T07:54:39.146Z,91.53
2023-03-14T07:55:39.969Z,91.42
2023-03-14T07:56:40.809Z,91.53
2023-03-14T07:57:41.638Z,91.74
2023-03-14T07:58:42.483Z,92.15
2023-03-14T07:59:43.300Z,92.25
2023-03-14T08:00:44.123Z,92.25
2023-03-14T08:01:44.948Z,92.36
2023-03-14T08:02:45.819Z,92.05
2023-03-14T08:03:46.663Z,91.74
2023-03-14T08:04:47.465Z,91.53
2023-03-14T08:05:48.311Z,91.32
2023-03-14T08:06:49.134Z,91.63
2023-03-14T08:07:49.971Z,91.74
2023-03-14T08:08:50.911Z,91.32
2023-03-14T08:09:51.672Z,91.11
2023-03-14T08:10:52.503Z,91.01
2023-03-14T08:11:53.370Z,90.91
2023-03-14T08:12:54.185Z,91.11
2023-03-14T08:13:55.005Z,91.22
2023-03-14T08:14:55.839Z,91.01
2023-03-14T08:15:56.677Z,91.22
2023-03-14T08:16:57.496Z,91.11
2023-03-14T08:17:58.331Z,91.01
2023-03-14T08:18:59.139Z,91.01
2023-03-14T08:19:59.960Z,90.95
2023-03-14T08:21:00.791Z,90.91
2023-03-14T08:22:01.641Z,91.05
2023-03-14T08:23:02.470Z,91.57
2023-03-14T08:24:03.321Z,91.78
2023-03-14T08:25:04.179Z,91.99
2023-03-14T08:26:04.957Z,92.30
2023-03-14T08:27:07.363Z,91.88
2023-03-14T08:28:06.311Z,91.67
2023-03-14T08:29:07.151Z,91.99
2023-03-14T08:30:07.968Z,92.30
2023-03-14T08:31:08.891Z,92.50
2023-03-14T08:32:09.950Z,92.91
2023-03-14T08:33:10.309Z,93.02
2023-03-14T08:34:11.134Z,93.79
2023-03-14T08:35:11.959Z,93.89
2023-03-14T08:36:12.826Z,93.68
2023-03-14T08:37:25.712Z,93.68
2023-03-14T08:38:15.345Z,93.48
2023-03-14T08:39:15.257Z,93.68
2023-03-14T08:40:16.103Z,94.62
2023-03-14T08:41:16.933Z,94.20
2023-03-14T08:42:17.778Z,94.20
2023-03-14T08:43:18.599Z,94.20
2023-03-14T08:44:20.892Z,94.31
2023-03-14T08:45:20.294Z,94.31
2023-03-14T08:46:21.214Z,94.51
2023-03-14T08:47:22.096Z,94.41
2023-03-14T08:48:22.886Z,94.72
2023-03-14T08:49:23.754Z,94.72
2023-03-14T08:50:24.523Z,95.03
2023-03-14T08:51:25.364Z,94.68
2023-03-14T08:52:26.199Z,94.57
2023-03-14T08:53:27.012Z,94.47
2023-03-14T08:54:27.892Z,94.26
2023-03-14T08:55:28.663Z,94.16
2023-03-14T08:56:29.483Z,94.16
2023-03-14T08:57:30.327Z,94.26
2023-03-14T08:58:31.160Z,94.37
2023-03-14T08:59:31.974Z,94.37
2023-03-14T09:00:32.806Z,94.26
2023-03-14T09:01:33.659Z,94.37
2023-03-14T09:02:34.513Z,94.84
2023-03-14T09:03:35.344Z,94.94
2023-03-14T09:04:36.273Z,95.04
2023-03-14T09:05:37.081Z,94.84
2023-03-14T09:06:37.924Z,94.73
2023-03-14T09:07:38.752Z,94.43
2023-03-14T09:08:39.929Z,94.53
2023-03-14T09:09:40.293Z,94.43
2023-03-14T09:10:41.097Z,95.04
2023-03-14T09:11:41.940Z,94.53
2023-03-14T09:12:42.825Z,94.12
2023-03-14T09:13:43.630Z,94.01
2023-03-14T09:14:44.469Z,94.43
2023-03-14T09:15:45.279Z,94.32
2023-03-14T09:16:46.135Z,94.43
2023-03-14T09:17:46.976Z,94.63
2023-03-14T09:18:47.782Z,94.94
2023-03-14T09:19:48.609Z,94.63
2023-03-14T09:20:49.428Z,94.73
2023-03-14T09:21:50.253Z,94.84
2023-03-14T09:22:51.088Z,94.73
2023-03-14T09:23:51.912Z,94.84
2023-03-14T09:24:52.769Z,95.36
2023-03-14T09:25:53.584Z,95.77
2023-03-14T09:26:54.409Z,95.56
2023-03-14T09:27:55.247Z,95.46
2023-03-14T09:28:58.571Z,95.56
2023-03-14T09:29:56.974Z,95.46
2023-03-14T09:30:57.807Z,95.36
2023-03-14T09:31:58.648Z,95.46
2023-03-14T09:32:59.542Z,95.15
2023-03-14T09:34:00.319Z,94.84
2023-03-14T09:35:01.168Z,94.63
2023-03-14T09:36:01.968Z,94.63
2023-03-14T09:37:02.805Z,94.84
2023-03-14T09:38:03.631Z,95.25
2023-03-14T09:39:04.450Z,94.84
2023-03-14T09:40:06.777Z,94.38
2023-03-14T09:41:05.897Z,93.97
2023-03-14T09:42:06.722Z,93.97
2023-03-14T09:43:07.561Z,93.87
2023-03-14T09:44:08.385Z,93.66
2023-03-14T09:45:09.208Z,93.97
2023-03-14T09:46:10.110Z,93.97
2023-03-14T09:47:10.923Z,94.28
2023-03-14T09:48:11.749Z,94.28
2023-03-14T09:49:12.590Z,93.97
2023-03-14T09:50:13.407Z,94.18
2023-03-14T09:51:14.238Z,94.59
2023-03-14T09:52:15.077Z,94.75
2023-03-14T09:53:15.904Z,94.54
2023-03-14T09:54:16.735Z,93.93
2023-03-14T09:55:17.584Z,93.30
2023-03-14T09:56:18.395Z,93.20
2023-03-14T09:57:19.237Z,93.41
2023-03-14T09:58:20.053Z,93.51
2023-03-14T09:59:20.887Z,93.10
2023-03-14T10:00:21.710Z,92.99
2023-03-14T10:01:22.621Z,92.68
2023-03-14T10:02:23.394Z,92.23
2023-03-14T10:03:24.248Z,91.92
2023-03-14T10:04:25.158Z,91.82
2023-03-14T10:05:25.985Z,92.13
2023-03-14T10:06:26.813Z,91.40
2023-03-14T10:07:27.644Z,91.61
2023-03-14T10:08:28.493Z,91.82
2023-03-14T10:09:29.310Z,92.13
2023-03-14T10:10:30.168Z,92.13
2023-03-14T10:11:30.971Z,92.23
2023-03-14T10:12:31.859Z,91.50
2023-03-14T10:13:32.642Z,91.20
2023-03-14T10:14:33.473Z,90.84
2023-03-14T10:15:34.301Z,90.74
2023-03-14T10:16:35.161Z,90.84
2023-03-14T10:17:35.989Z,91.26
2023-03-14T10:18:36.823Z,91.77
2023-03-14T10:19:37.650Z,91.67
2023-03-14T10:20:38.483Z,91.83
2023-03-14T10:21:39.299Z,91.73
2023-03-14T10:22:40.130Z,92.35
2023-03-14T10:23:40.984Z,92.46
2023-03-14T10:24:41.807Z,92.51
2023-03-14T10:25:42.654Z,92.41
2023-03-14T10:26:43.462Z,92.41
2023-03-14T10:27:44.286Z,91.89
2023-03-14T10:28:45.126Z,91.54
2023-03-14T10:29:45.955Z,92.78
2023-03-14T10:30:46.874Z,93.35
2023-03-14T10:31:47.687Z,94.08
2023-03-14T10:32:48.584Z,92.63
2023-03-14T10:33:49.370Z,90.37
2023-03-14T10:34:50.199Z,91.09
2023-03-14T10:35:51.052Z,90.53
2023-03-14T10:36:51.879Z,90.94
2023-03-14T10:37:52.710Z,90.12
2023-03-14T10:38:53.553Z,89.05
2023-03-14T10:39:54.378Z,89.36
2023-03-14T10:40:55.231Z,88.74
2023-03-14T10:41:57.345Z,87.81
2023-03-14T10:42:56.613Z,87.30
2023-03-14T10:43:57.460Z,85.75
2023-03-14T10:44:58.291Z,84.21
2023-03-14T10:45:59.294Z,84.52
2023-03-14T10:46:59.610Z,84.21
2023-03-14T10:48:00.439Z,84.52
2023-03-14T10:49:01.273Z,85.14
2023-03-14T10:50:02.106Z,84.93
2023-03-14T10:51:02.922Z,85.24
2023-03-14T10:52:03.770Z,85.34
2023-03-14T10:53:04.585Z,85.44
2023-03-14T10:54:05.428Z,85.34
2023-03-14T10:55:06.280Z,85.75
2023-03-14T10:56:07.127Z,85.14
2023-03-14T10:57:07.931Z,84.31
2023-03-14T10:58:08.807Z,85.41
2023-03-14T10:59:09.608Z,85.71
2023-03-14T11:00:10.436Z,86.23
2023-03-14T11:01:11.268Z,85.82
2023-03-14T11:02:13.885Z,85.41
2023-03-14T11:03:12.779Z,84.69
2023-03-14T11:04:13.690Z,85.10
2023-03-14T11:05:14.535Z,84.17
2023-03-14T11:06:15.351Z,84.07
2023-03-14T11:07:16.185Z,83.62
2023-03-14T11:08:17.013Z,83.83
2023-03-14T11:09:17.852Z,83.00
2023-03-14T11:10:18.681Z,83.62
2023-03-14T11:11:19.539Z,84.03
2023-03-14T11:12:20.344Z,83.92
2023-03-14T11:13:21.218Z,84.13
2023-03-14T11:14:22.012Z,84.44
2023-03-14T11:15:22.845Z,84.54
2023-03-14T11:16:23.680Z,84.95
2023-03-14T11:17:24.512Z,84.54
2023-03-14T11:18:25.332Z,83.83
2023-03-14T11:19:26.197Z,84.03
2023-03-14T11:20:26.995Z,84.23
2023-03-14T11:21:27.828Z,85.26
2023-03-14T11:22:28.658Z,85.26
2023-03-14T11:23:29.507Z,85.36
2023-03-14T11:24:30.332Z,85.36
2023-03-14T11:25:31.162Z,85.02
2023-03-14T11:26:32.132Z,85.02
2023-03-14T11:27:32.892Z,85.12
2023-03-14T11:28:33.733Z,85.33
2023-03-14T11:29:34.568Z,85.53
2023-03-14T11:30:35.408Z,85.74
2023-03-14T11:31:36.353Z,85.84
2023-03-14T11:32:37.791Z,85.84
2023-03-14T11:33:38.094Z,85.90
2023-03-14T11:34:38.981Z,86.21
2023-03-14T11:35:39.866Z,85.90
2023-03-14T11:36:40.676Z,85.80
2023-03-14T11:37:41.492Z,85.90
2023-03-14T11:38:42.322Z,85.60
2023-03-14T11:39:43.161Z,84.88
2023-03-14T11:40:43.995Z,84.42
2023-03-14T11:41:44.840Z,84.12
2023-03-14T11:42:45.652Z,84.12
2023-03-14T11:43:46.473Z,83.91
2023-03-14T11:44:47.312Z,83.61
2023-03-14T11:45:48.144Z,83.61
2023-03-14T11:46:49.089Z,83.70
2023-03-14T11:47:49.876Z,83.91
2023-03-14T11:48:50.714Z,84.12
2023-03-14T11:49:51.708Z,83.50
2023-03-14T11:50:52.030Z,82.89
2023-03-14T11:51:52.852Z,83.61
2023-03-14T11:52:53.681Z,84.12
2023-03-14T11:53:54.514Z,84.53
2023-03-14T11:54:55.360Z,84.74
2023-03-14T11:55:56.191Z,84.63
2023-03-14T11:56:57.031Z,84.18
2023-03-14T11:57:57.846Z,83.98
2023-03-14T11:58:58.660Z,83.87
2023-03-14T11:59:59.502Z,83.77
2023-03-14T12:01:00.343Z,83.36
2023-03-14T12:02:01.581Z,82.95
2023-03-14T12:03:01.925Z,83.05
2023-03-14T12:04:02.829Z,83.67
2023-03-14T12:05:03.770Z,83.46
2023-03-14T12:06:04.550Z,83.56
2023-03-14T12:07:05.382Z,83.46
2023-03-14T12:08:06.202Z,83.15
2023-03-14T12:09:07.044Z,82.95
2023-03-14T12:10:07.867Z,82.95
2023-03-14T12:11:08.699Z,83.05
2023-03-14T12:12:09.597Z,82.95
2023-03-14T12:13:10.387Z,82.75
2023-03-14T12:14:11.188Z,82.54
2023-03-14T12:15:12.048Z,82.54
2023-03-14T12:16:13.044Z,82.13
2023-03-14T12:17:13.842Z,82.33
2023-03-14T12:18:14.659Z,82.03
2023-03-14T12:19:15.734Z,82.23
2023-03-14T12:20:16.102Z,82.03
2023-03-14T12:21:16.886Z,82.03
2023-03-14T12:22:17.717Z,82.13
2023-03-14T12:23:18.545Z,81.14
2023-03-14T12:24:19.368Z,81.24
2023-03-14T12:25:20.307Z,81.24
2023-03-14T12:26:21.096Z,81.34
2023-03-14T12:27:21.943Z,81.86
2023-03-14T12:28:22.740Z,82.68
2023-03-14T12:29:23.573Z,82.71
2023-03-14T12:30:24.399Z,83.44
2023-03-14T12:31:25.291Z,84.26
2023-03-14T12:32:26.183Z,84.47
2023-03-14T12:33:26.997Z,85.39
2023-03-14T12:34:28.092Z,85.28
2023-03-14T12:35:28.648Z,85.60
2023-03-14T12:36:28.953Z,86.21
2023-03-14T12:37:29.782Z,86.11
2023-03-14T12:38:30.600Z,86.32
2023-03-14T12:39:31.446Z,86.62
2023-03-14T12:40:32.271Z,86.42
2023-03-14T12:41:33.104Z,85.90
2023-03-14T12:42:44.525Z,86.32
2023-03-14T12:43:35.651Z,86.83
2023-03-14T12:44:35.476Z,86.72
2023-03-14T12:45:36.431Z,85.49
2023-03-14T12:46:37.272Z,85.28
2023-03-14T12:47:38.133Z,85.70
2023-03-14T12:48:38.955Z,85.80
2023-03-14T12:49:39.781Z,85.70
2023-03-14T12:50:40.620Z,85.70
2023-03-14T12:51:41.453Z,85.39
2023-03-14T12:52:44.306Z,85.28
2023-03-14T12:53:42.836Z,85.08
2023-03-14T12:54:43.669Z,85.28
2023-03-14T12:55:44.521Z,85.25
2023-03-14T12:56:45.334Z,84.84
2023-03-14T12:57:46.186Z,84.32
2023-03-14T12:58:46.993Z,84.63
2023-03-14T12:59:47.810Z,85.25
2023-03-14T13:00:48.714Z,85.97
2023-03-14T13:01:49.500Z,86.68
2023-03-14T13:02:50.330Z,86.68
2023-03-14T13:03:51.201Z,86.79